Terminal Aerodrome Forecast
Issued by NWS Twin Cities, MN

Home | Current Version | Previous Version | Text Only | Print | Product List | Glossary On
Versions: 1 2 3 4 5 6 7 8 9 10 11 12 13 14 15 16 17 18 19
000
FTUS43 KMPX 252338
TAFSTC
TAF
KSTC 252338Z 2600/2624 08010KT P6SM OVC020
     FM260300 07006KT P6SM OVC015
     FM260600 06005KT 5SM -RADZ BR OVC007
     FM261200 07006KT 6SM BR VCSH OVC008
     FM261800 03006KT P6SM OVC008=

USA.gov is the U.S. government's official web portal to all federal, state and local government web resources and services.